Station Historical Data
Daily Summary for May 15, 2012 Units:  English    Metric   Both
« Previous Day
Next Day »
Daily Weekly Monthly Yearly Custom
  High: Low: Average:
Temperature: 77.3 °F 59.6 °F 68.1 °F
Dew Point: 63.5 °F 57.3 °F 59.9 °F
Humidity: 94% 51% 77%
Wind Speed: 9.0mph 0.0mph 2.4mph
Wind Gust: 12.0mph - -
Wind- - South
Pressure: 30.00 in 29.93 in -
Precipitation: 0.00 in    
Historical Graphs
 
 
Tabular Data for May 15, 2012
Time Temperature Dew Point Pressure Wind Wind Speed Wind Gust Humidity Rainfall Rate (Hourly) Conditions
00:00 62.4 °F 60.3 °F 29.97 in North 1.0 mph 2.0 mph 93% 0.00 in
00:05 62.4 °F 60.3 °F 29.97 in North 2.0 mph 2.0 mph 93% 0.00 in
00:10 62.5 °F 60.5 °F 29.97 in North 1.0 mph 3.0 mph 93% 0.00 in
00:15 62.5 °F 60.5 °F 29.97 in North 1.0 mph 2.0 mph 93% 0.00 in
00:21 62.5 °F 60.5 °F 29.97 in NNE 1.0 mph 2.0 mph 93% 0.00 in
00:26 62.5 °F 60.5 °F 29.97 in North 3.0 mph 3.0 mph 93% 0.00 in
00:31 62.5 °F 60.5 °F 29.96 in North 2.0 mph 4.0 mph 93% 0.00 in
00:36 62.5 °F 60.5 °F 29.96 in North 4.0 mph 4.0 mph 93% 0.00 in
00:41 62.5 °F 60.5 °F 29.96 in NE 2.0 mph 4.0 mph 93% 0.00 in
00:46 62.4 °F 60.3 °F 29.96 in NNE 1.0 mph 2.0 mph 93% 0.00 in
00:51 62.4 °F 60.3 °F 29.96 in NNW 1.0 mph 4.0 mph 93% 0.00 in
00:56 62.4 °F 60.3 °F 29.97 in North 2.0 mph 3.0 mph 93% 0.00 in
01:01 62.4 °F 60.3 °F 29.96 in NNW 2.0 mph 3.0 mph 93% 0.00 in
01:06 62.4 °F 60.3 °F 29.96 in NNE 2.0 mph 4.0 mph 93% 0.00 in
01:11 62.5 °F 60.5 °F 29.96 in NNE 1.0 mph 2.0 mph 93% 0.00 in
01:16 62.5 °F 60.5 °F 29.96 in NE 2.0 mph 4.0 mph 93% 0.00 in
01:21 62.6 °F 60.5 °F 29.96 in NNW 1.0 mph 4.0 mph 93% 0.00 in
01:26 62.6 °F 60.5 °F 29.96 in NNE 2.0 mph 3.0 mph 93% 0.00 in
01:31 62.7 °F 60.7 °F 29.96 in NNE 2.0 mph 2.0 mph 93% 0.00 in
01:36 62.7 °F 60.7 °F 29.96 in North 1.0 mph 3.0 mph 93% 0.00 in
01:41 62.8 °F 60.8 °F 29.96 in NE 2.0 mph 3.0 mph 93% 0.00 in
01:46 62.8 °F 60.8 °F 29.96 in NNE 2.0 mph 3.0 mph 93% 0.00 in
01:51 62.8 °F 60.8 °F 29.95 in North 4.0 mph 4.0 mph 93% 0.00 in
01:56 62.8 °F 60.8 °F 29.95 in NNE 2.0 mph 2.0 mph 93% 0.00 in
02:01 62.8 °F 60.8 °F 29.95 in NNE 2.0 mph 3.0 mph 93% 0.00 in
02:06 62.8 °F 60.8 °F 29.95 in North 1.0 mph 3.0 mph 93% 0.00 in
02:11 62.7 °F 60.7 °F 29.95 in NNW 1.0 mph 2.0 mph 93% 0.00 in
02:16 62.6 °F 60.5 °F 29.95 in NNW 2.0 mph 2.0 mph 93% 0.00 in
02:21 62.6 °F 60.5 °F 29.95 in NNE 1.0 mph 3.0 mph 93% 0.00 in
02:26 62.6 °F 60.5 °F 29.95 in NNE 1.0 mph 2.0 mph 93% 0.00 in
02:31 62.6 °F 60.5 °F 29.95 in NNW 2.0 mph 2.0 mph 93% 0.00 in
02:36 62.6 °F 60.5 °F 29.95 in North 1.0 mph 2.0 mph 93% 0.00 in
02:41 62.6 °F 60.5 °F 29.95 in NNE 1.0 mph 2.0 mph 93% 0.00 in
02:46 62.6 °F 60.5 °F 29.95 in NNE 2.0 mph 2.0 mph 93% 0.00 in
02:51 62.7 °F 60.7 °F 29.94 in NNE 2.0 mph 4.0 mph 93% 0.00 in
02:56 62.8 °F 60.8 °F 29.94 in NE 3.0 mph 3.0 mph 93% 0.00 in
03:01 62.8 °F 60.8 °F 29.94 in Calm   2.0 mph 93% 0.00 in
03:06 62.8 °F 60.8 °F 29.94 in NNW 1.0 mph 2.0 mph 93% 0.00 in
03:11 62.8 °F 60.8 °F 29.94 in NNW 2.0 mph 2.0 mph 93% 0.00 in
03:16 62.7 °F 60.7 °F 29.94 in NNW 1.0 mph 3.0 mph 93% 0.00 in
03:21 62.6 °F 60.5 °F 29.93 in NNW 1.0 mph 2.0 mph 93% 0.00 in
03:26 62.5 °F 60.5 °F 29.93 in Calm   1.0 mph 93% 0.00 in
03:31 62.4 °F 60.3 °F 29.93 in North 1.0 mph 2.0 mph 93% 0.00 in
03:37 62.4 °F 60.3 °F 29.93 in North 1.0 mph 1.0 mph 93% 0.00 in
03:42 62.3 °F 60.2 °F 29.93 in NNW 3.0 mph 3.0 mph 93% 0.00 in
03:47 62.1 °F 60.1 °F 29.93 in NNW 2.0 mph 3.0 mph 93% 0.00 in
03:52 61.9 °F 59.9 °F 29.93 in NNW 3.0 mph 3.0 mph 93% 0.00 in
03:57 61.8 °F 59.8 °F 29.93 in NNW 2.0 mph 3.0 mph 93% 0.00 in
04:02 61.7 °F 59.7 °F 29.93 in NNW 1.0 mph 3.0 mph 93% 0.00 in
04:07 61.6 °F 59.6 °F 29.93 in NNW 2.0 mph 3.0 mph 93% 0.00 in
04:12 61.5 °F 59.5 °F 29.93 in NNW 2.0 mph 2.0 mph 93% 0.00 in
04:17 61.4 °F 59.7 °F 29.93 in NNW 3.0 mph 3.0 mph 94% 0.00 in
04:22 61.4 °F 59.7 °F 29.93 in NW 2.0 mph 3.0 mph 94% 0.00 in
04:27 61.4 °F 59.7 °F 29.93 in NW 2.0 mph 3.0 mph 94% 0.00 in
04:32 61.4 °F 59.7 °F 29.93 in NNW 2.0 mph 2.0 mph 94% 0.00 in
04:37 61.3 °F 59.6 °F 29.93 in NW 1.0 mph 1.0 mph 94% 0.00 in
04:42 61.3 °F 59.6 °F 29.93 in Calm   1.0 mph 94% 0.00 in
04:48 61.3 °F 59.6 °F 29.93 in Calm   1.0 mph 94% 0.00 in
04:53 61.3 °F 59.6 °F 29.93 in Calm     94% 0.00 in
04:58 61.3 °F 59.6 °F 29.94 in NNW 1.0 mph 2.0 mph 94% 0.00 in
05:03 61.3 °F 59.6 °F 29.94 in Calm   1.0 mph 94% 0.00 in
05:08 61.3 °F 59.6 °F 29.94 in Calm   1.0 mph 94% 0.00 in
05:13 61.3 °F 59.6 °F 29.94 in Calm   1.0 mph 94% 0.00 in
05:18 61.2 °F 59.5 °F 29.94 in North 1.0 mph 1.0 mph 94% 0.00 in
05:23 61.2 °F 59.5 °F 29.94 in North 2.0 mph 2.0 mph 94% 0.00 in
05:28 61.1 °F 59.4 °F 29.94 in NNW 2.0 mph 2.0 mph 94% 0.00 in
05:33 61.0 °F 59.3 °F 29.94 in North 1.0 mph 2.0 mph 94% 0.00 in
05:38 60.9 °F 59.2 °F 29.94 in NNW 2.0 mph 3.0 mph 94% 0.00 in
05:43 60.8 °F 59.1 °F 29.94 in North 2.0 mph 3.0 mph 94% 0.00 in
05:48 60.7 °F 59.0 °F 29.94 in North 1.0 mph 3.0 mph 94% 0.00 in
05:53 60.7 °F 59.0 °F 29.94 in NNW 2.0 mph 2.0 mph 94% 0.00 in
05:58 60.6 °F 58.9 °F 29.94 in NNW 2.0 mph 3.0 mph 94% 0.00 in
06:03 60.6 °F 58.9 °F 29.94 in NNW 2.0 mph 3.0 mph 94% 0.00 in
06:08 60.5 °F 58.8 °F 29.94 in North 1.0 mph 2.0 mph 94% 0.00 in
06:13 60.5 °F 58.8 °F 29.94 in North 2.0 mph 4.0 mph 94% 0.00 in
06:18 60.5 °F 58.8 °F 29.94 in NE 2.0 mph 3.0 mph 94% 0.00 in
06:23 60.5 °F 58.8 °F 29.94 in NNE 1.0 mph 3.0 mph 94% 0.00 in
06:29 60.4 °F 58.7 °F 29.94 in NNE 2.0 mph 3.0 mph 94% 0.00 in
06:34 60.4 °F 58.7 °F 29.94 in NE 1.0 mph 2.0 mph 94% 0.00 in
06:39 60.3 °F 58.6 °F 29.94 in North 1.0 mph 3.0 mph 94% 0.00 in
06:44 60.3 °F 58.6 °F 29.95 in Calm   2.0 mph 94% 0.00 in
06:49 60.1 °F 58.4 °F 29.95 in NNE 1.0 mph 1.0 mph 94% 0.00 in
06:54 60.1 °F 58.4 °F 29.95 in NNE 1.0 mph 2.0 mph 94% 0.00 in
06:59 60.0 °F 58.3 °F 29.95 in Calm   1.0 mph 94% 0.00 in
07:04 60.0 °F 58.3 °F 29.95 in NNE 1.0 mph 1.0 mph 94% 0.00 in
07:09 59.9 °F 58.2 °F 29.95 in NNE 1.0 mph 2.0 mph 94% 0.00 in
07:14 59.9 °F 58.2 °F 29.96 in North 2.0 mph 2.0 mph 94% 0.00 in
07:19 59.6 °F 57.9 °F 29.96 in North 1.0 mph 2.0 mph 94% 0.00 in
07:24 59.6 °F 57.9 °F 29.96 in North 2.0 mph 3.0 mph 94% 0.00 in
07:29 59.6 °F 57.9 °F 29.96 in North 2.0 mph 2.0 mph 94% 0.00 in
07:34 59.7 °F 58.0 °F 29.96 in NE 2.0 mph 2.0 mph 94% 0.00 in
07:39 59.9 °F 58.2 °F 29.96 in Calm   2.0 mph 94% 0.00 in
07:44 59.9 °F 58.2 °F 29.96 in NNW 2.0 mph 2.0 mph 94% 0.00 in
07:49 59.9 °F 58.2 °F 29.96 in NNW 1.0 mph 3.0 mph 94% 0.00 in
07:54 60.1 °F 58.4 °F 29.97 in North 2.0 mph 2.0 mph 94% 0.00 in
07:59 60.5 °F 58.8 °F 29.97 in Calm   2.0 mph 94% 0.00 in
08:04 61.0 °F 59.3 °F 29.97 in NNE 1.0 mph 1.0 mph 94% 0.00 in
08:09 61.4 °F 59.7 °F 29.97 in North 2.0 mph 3.0 mph 94% 0.00 in
08:14 61.9 °F 60.2 °F 29.97 in NNW 2.0 mph 4.0 mph 94% 0.00 in
08:19 62.3 °F 60.6 °F 29.97 in NE 3.0 mph 5.0 mph 94% 0.00 in
08:24 62.9 °F 61.2 °F 29.97 in North 4.0 mph 6.0 mph 94% 0.00 in
08:29 63.1 °F 61.0 °F 29.97 in NNE 3.0 mph 6.0 mph 93% 0.00 in
08:34 63.2 °F 61.2 °F 29.97 in North 3.0 mph 6.0 mph 93% 0.00 in
08:39 63.4 °F 61.3 °F 29.98 in NE 3.0 mph 4.0 mph 93% 0.00 in
08:44 63.9 °F 61.5 °F 29.98 in NE 2.0 mph 4.0 mph 92% 0.00 in
08:49 64.6 °F 61.9 °F 29.98 in North 3.0 mph 6.0 mph 91% 0.00 in
08:54 64.9 °F 61.9 °F 29.98 in North 2.0 mph 7.0 mph 90% 0.00 in
08:59 65.1 °F 61.8 °F 29.98 in NNE 2.0 mph 7.0 mph 89% 0.00 in
09:04 65.6 °F 62.3 °F 29.98 in North 4.0 mph 5.0 mph 89% 0.00 in
09:09 65.9 °F 61.9 °F 29.98 in NW 2.0 mph 7.0 mph 87% 0.00 in
09:14 66.0 °F 62.0 °F 29.99 in NE 5.0 mph 5.0 mph 87% 0.00 in
09:19 66.1 °F 62.5 °F 29.98 in NE 2.0 mph 5.0 mph 88% 0.00 in
09:25 66.0 °F 61.7 °F 29.98 in NNE 6.0 mph 6.0 mph 86% 0.00 in
09:30 66.0 °F 62.0 °F 29.99 in NE 3.0 mph 5.0 mph 87% 0.00 in
09:35 65.9 °F 61.9 °F 29.99 in North 3.0 mph 6.0 mph 87% 0.00 in
09:40 66.2 °F 62.2 °F 29.99 in North 1.0 mph 7.0 mph 87% 0.00 in
09:45 66.7 °F 62.4 °F 29.99 in NNE 4.0 mph 5.0 mph 86% 0.00 in
09:50 67.3 °F 62.3 °F 29.99 in NNE 5.0 mph 7.0 mph 84% 0.00 in
09:55 67.7 °F 62.7 °F 30.00 in NW 1.0 mph 5.0 mph 84% 0.00 in
10:00 68.2 °F 63.2 °F 30.00 in East 4.0 mph 5.0 mph 84% 0.00 in
10:05 68.3 °F 62.6 °F 30.00 in ENE 2.0 mph 5.0 mph 82% 0.00 in
10:10 68.9 °F 63.5 °F 30.00 in NNE 4.0 mph 6.0 mph 83% 0.00 in
10:15 69.0 °F 62.2 °F 30.00 in NNW 4.0 mph 6.0 mph 79% 0.00 in
10:20 68.8 °F 61.7 °F 30.00 in NE 3.0 mph 8.0 mph 78% 0.00 in
10:25 68.5 °F 61.7 °F 30.00 in NNE 4.0 mph 7.0 mph 79% 0.00 in
10:30 69.0 °F 62.2 °F 30.00 in NE 2.0 mph 6.0 mph 79% 0.00 in
10:35 69.3 °F 61.4 °F 30.00 in NNW 9.0 mph 9.0 mph 76% 0.00 in
10:40 69.4 °F 61.9 °F 30.00 in NE 4.0 mph 5.0 mph 77% 0.00 in
10:45 70.1 °F 61.4 °F 30.00 in NE 5.0 mph 5.0 mph 74% 0.00 in
10:50 70.2 °F 61.9 °F 30.00 in North 9.0 mph 9.0 mph 75% 0.00 in
10:55 70.4 °F 61.3 °F 30.00 in NNE 3.0 mph 8.0 mph 73% 0.00 in
11:00 70.7 °F 61.6 °F 30.00 in NNW 4.0 mph 6.0 mph 73% 0.00 in
11:05 71.0 °F 61.5 °F 30.00 in NW 1.0 mph 7.0 mph 72% 0.00 in
11:10 71.3 °F 62.6 °F 30.00 in North 3.0 mph 6.0 mph 74% 0.00 in
11:15 70.8 °F 60.9 °F 30.00 in North 5.0 mph 8.0 mph 71% 0.00 in
11:20 70.2 °F 60.8 °F 30.00 in North 2.0 mph 5.0 mph 72% 0.00 in
11:26 70.7 °F 61.2 °F 30.00 in NW 3.0 mph 5.0 mph 72% 0.00 in
11:31 71.2 °F 60.5 °F 30.00 in SE 2.0 mph 5.0 mph 69% 0.00 in
11:36 71.4 °F 60.3 °F 30.00 in NE 6.0 mph 9.0 mph 68% 0.00 in
11:41 71.6 °F 60.1 °F 30.00 in NE 5.0 mph 7.0 mph 67% 0.00 in
11:46 72.2 °F 61.5 °F 30.00 in ENE 5.0 mph 7.0 mph 69% 0.00 in
11:51 72.6 °F 60.2 °F 30.00 in ENE 4.0 mph 7.0 mph 65% 0.00 in
11:56 72.2 °F 61.1 °F 30.00 in NW 6.0 mph 7.0 mph 68% 0.00 in
12:01 72.5 °F 60.5 °F 30.00 in WNW 4.0 mph 8.0 mph 66% 0.00 in
12:06 72.3 °F 60.7 °F 30.00 in NNW 7.0 mph 9.0 mph 67% 0.00 in
12:11 72.2 °F 59.8 °F 30.00 in NE 4.0 mph 6.0 mph 65% 0.00 in
12:16 72.6 °F 60.6 °F 30.00 in North 7.0 mph 11.0 mph 66% 0.00 in
12:21 72.7 °F 59.4 °F 30.00 in East 3.0 mph 8.0 mph 63% 0.00 in
12:26 72.9 °F 60.5 °F 30.00 in NW 4.0 mph 11.0 mph 65% 0.00 in
12:31 72.4 °F 60.0 °F 30.00 in North 4.0 mph 9.0 mph 65% 0.00 in
12:36 72.6 °F 59.3 °F 30.00 in NE 2.0 mph 8.0 mph 63% 0.00 in
12:41 72.9 °F 61.3 °F 30.00 in NNE 9.0 mph 9.0 mph 67% 0.00 in
12:46 73.6 °F 61.1 °F 29.99 in NNE 5.0 mph 8.0 mph 65% 0.00 in
12:51 73.8 °F 60.9 °F 29.99 in NE 3.0 mph 6.0 mph 64% 0.00 in
12:56 73.8 °F 59.5 °F 29.99 in NE 3.0 mph 8.0 mph 61% 0.00 in
13:01 73.6 °F 59.3 °F 29.99 in NNE 2.0 mph 9.0 mph 61% 0.00 in
13:06 73.7 °F 61.2 °F 29.99 in NNE 5.0 mph 8.0 mph 65% 0.00 in
13:11 73.8 °F 62.2 °F 29.99 in NW 2.0 mph 9.0 mph 67% 0.00 in
13:16 74.1 °F 60.7 °F 29.99 in NE 7.0 mph 9.0 mph 63% 0.00 in
13:21 74.1 °F 60.3 °F 29.99 in North 2.0 mph 6.0 mph 62% 0.00 in
13:26 74.5 °F 61.1 °F 29.98 in North 2.0 mph 6.0 mph 63% 0.00 in
13:31 74.6 °F 60.7 °F 29.98 in NE 5.0 mph 8.0 mph 62% 0.00 in
13:36 74.6 °F 61.6 °F 29.99 in NNW 4.0 mph 6.0 mph 64% 0.00 in
13:41 74.7 °F 62.2 °F 29.98 in North 3.0 mph 6.0 mph 65% 0.00 in
13:46 74.9 °F 61.5 °F 29.98 in North 4.0 mph 9.0 mph 63% 0.00 in
13:52 74.4 °F 60.5 °F 29.98 in NE 2.0 mph 8.0 mph 62% 0.00 in
13:56 75.0 °F 61.6 °F 29.98 in North 8.0 mph 8.0 mph 63% 0.00 in
14:02 75.7 °F 61.8 °F 29.98 in NNW 6.0 mph 6.0 mph 62% 0.00 in
14:07 75.6 °F 59.3 °F 29.98 in NNW 5.0 mph 8.0 mph 57% 0.00 in
14:12 75.3 °F 60.5 °F 29.98 in NNE 4.0 mph 8.0 mph 60% 0.00 in
14:17 75.1 °F 59.8 °F 29.98 in NE 3.0 mph 8.0 mph 59% 0.00 in
14:22 75.3 °F 60.9 °F 29.98 in NNW 5.0 mph 5.0 mph 61% 0.00 in
14:27 75.3 °F 59.5 °F 29.98 in North 4.0 mph 9.0 mph 58% 0.00 in
14:32 75.4 °F 60.1 °F 29.98 in NE 3.0 mph 7.0 mph 59% 0.00 in
14:37 75.3 °F 58.0 °F 29.98 in North 2.0 mph 10.0 mph 55% 0.00 in
14:42 75.3 °F 60.0 °F 29.98 in NE 2.0 mph 6.0 mph 59% 0.00 in
14:47 75.6 °F 59.8 °F 29.98 in North 6.0 mph 8.0 mph 58% 0.00 in
14:52 75.2 °F 58.9 °F 29.97 in NW 4.0 mph 7.0 mph 57% 0.00 in
14:57 75.3 °F 60.0 °F 29.97 in NNE 3.0 mph 4.0 mph 59% 0.00 in
15:02 75.4 °F 59.6 °F 29.97 in NNE 2.0 mph 4.0 mph 58% 0.00 in
15:07 75.1 °F 59.8 °F 29.97 in North 4.0 mph 7.0 mph 59% 0.00 in
15:12 74.9 °F 60.1 °F 29.97 in NW 1.0 mph 5.0 mph 60% 0.00 in
15:17 75.3 °F 59.5 °F 29.96 in NNW 1.0 mph 3.0 mph 58% 0.00 in
15:22 75.3 °F 60.9 °F 29.96 in North 4.0 mph 6.0 mph 61% 0.00 in
15:27 75.0 °F 59.2 °F 29.96 in NNW 5.0 mph 7.0 mph 58% 0.00 in
15:32 75.1 °F 59.8 °F 29.96 in NNE 5.0 mph 5.0 mph 59% 0.00 in
15:37 75.2 °F 60.4 °F 29.96 in NW 4.0 mph 7.0 mph 60% 0.00 in
15:42 75.1 °F 61.2 °F 29.96 in North 2.0 mph 7.0 mph 62% 0.00 in
15:48 75.3 °F 61.8 °F 29.95 in NW 2.0 mph 5.0 mph 63% 0.00 in
15:52 75.4 °F 60.6 °F 29.96 in NE 9.0 mph 11.0 mph 60% 0.00 in
15:58 75.4 °F 61.0 °F 29.96 in North 5.0 mph 8.0 mph 61% 0.00 in
16:03 75.2 °F 60.4 °F 29.95 in NNW 6.0 mph 9.0 mph 60% 0.00 in
16:08 75.7 °F 61.3 °F 29.95 in NNW 9.0 mph 10.0 mph 61% 0.00 in
16:13 76.2 °F 61.3 °F 29.95 in NW 3.0 mph 5.0 mph 60% 0.00 in
16:18 76.5 °F 60.6 °F 29.95 in NNW 5.0 mph 8.0 mph 58% 0.00 in
16:23 76.7 °F 60.3 °F 29.95 in NNE 5.0 mph 12.0 mph 57% 0.00 in
16:28 76.5 °F 60.6 °F 29.94 in North 3.0 mph 7.0 mph 58% 0.00 in
16:33 77.0 °F 62.1 °F 29.94 in North 5.0 mph 7.0 mph 60% 0.00 in
16:38 76.9 °F 60.5 °F 29.94 in NW 2.0 mph 8.0 mph 57% 0.00 in
16:43 77.1 °F 62.2 °F 29.94 in ENE 7.0 mph 7.0 mph 60% 0.00 in
16:48 76.7 °F 58.8 °F 29.94 in NNE 7.0 mph 10.0 mph 54% 0.00 in
16:53 76.4 °F 60.1 °F 29.94 in NNW 4.0 mph 6.0 mph 57% 0.00 in
16:58 76.8 °F 59.4 °F 29.94 in NNE 5.0 mph 8.0 mph 55% 0.00 in
17:03 77.2 °F 58.2 °F 29.94 in NNW 9.0 mph 9.0 mph 52% 0.00 in
17:08 77.0 °F 59.6 °F 29.94 in ENE 3.0 mph 9.0 mph 55% 0.00 in
17:13 77.0 °F 58.6 °F 29.94 in NNE 5.0 mph 9.0 mph 53% 0.00 in
17:18 77.2 °F 58.2 °F 29.94 in NE 5.0 mph 7.0 mph 52% 0.00 in
17:23 77.3 °F 57.8 °F 29.94 in NNW 8.0 mph 8.0 mph 51% 0.00 in
17:28 77.0 °F 58.0 °F 29.94 in NNW 5.0 mph 7.0 mph 52% 0.00 in
17:33 76.7 °F 58.8 °F 29.94 in NNE 6.0 mph 7.0 mph 54% 0.00 in
17:38 76.5 °F 59.7 °F 29.94 in North 3.0 mph 7.0 mph 56% 0.00 in
17:43 76.7 °F 57.8 °F 29.94 in NNW 5.0 mph 6.0 mph 52% 0.00 in
17:48 76.5 °F 59.7 °F 29.94 in North 1.0 mph 7.0 mph 56% 0.00 in
17:53 77.1 °F 59.2 °F 29.94 in NW 2.0 mph 6.0 mph 54% 0.00 in
17:58 77.2 °F 57.7 °F 29.94 in ENE 3.0 mph 8.0 mph 51% 0.00 in
18:03 77.1 °F 58.7 °F 29.94 in NNE 3.0 mph 6.0 mph 53% 0.00 in
18:08 76.8 °F 57.9 °F 29.94 in NNW 2.0 mph 5.0 mph 52% 0.00 in
18:13 76.6 °F 58.2 °F 29.94 in North 4.0 mph 4.0 mph 53% 0.00 in
18:18 76.0 °F 58.7 °F 29.94 in North 2.0 mph 3.0 mph 55% 0.00 in
18:23 76.2 °F 59.9 °F 29.94 in NNE 1.0 mph 3.0 mph 57% 0.00 in
18:29 76.5 °F 58.1 °F 29.93 in North 5.0 mph 5.0 mph 53% 0.00 in
18:33 76.1 °F 59.8 °F 29.94 in NNW 3.0 mph 5.0 mph 57% 0.00 in
18:39 76.0 °F 59.2 °F 29.93 in NNW 3.0 mph 4.0 mph 56% 0.00 in
18:44 76.0 °F 60.2 °F 29.93 in North 2.0 mph 3.0 mph 58% 0.00 in
18:49 76.6 °F 59.8 °F 29.93 in NW 1.0 mph 2.0 mph 56% 0.00 in
18:54 76.8 °F 58.4 °F 29.93 in NNE 3.0 mph 8.0 mph 53% 0.00 in
18:59 76.7 °F 58.8 °F 29.93 in NNW 2.0 mph 7.0 mph 54% 0.00 in
19:04 76.7 °F 58.8 °F 29.93 in North 4.0 mph 9.0 mph 54% 0.00 in
19:09 76.5 °F 58.6 °F 29.93 in NNW 3.0 mph 6.0 mph 54% 0.00 in
19:14 76.3 °F 59.5 °F 29.93 in NNW 4.0 mph 4.0 mph 56% 0.00 in
19:19 76.4 °F 58.0 °F 29.93 in North 3.0 mph 6.0 mph 53% 0.00 in
19:24 76.2 °F 58.4 °F 29.93 in North 4.0 mph 6.0 mph 54% 0.00 in
19:29 76.1 °F 58.8 °F 29.93 in North 1.0 mph 5.0 mph 55% 0.00 in
19:34 76.0 °F 59.2 °F 29.93 in North 2.0 mph 4.0 mph 56% 0.00 in
19:39 76.0 °F 58.7 °F 29.93 in North 1.0 mph 4.0 mph 55% 0.00 in
19:44 75.9 °F 59.1 °F 29.93 in North 2.0 mph 4.0 mph 56% 0.00 in
19:49 75.6 °F 59.3 °F 29.93 in NNW 2.0 mph 3.0 mph 57% 0.00 in
19:54 75.3 °F 60.0 °F 29.93 in North 2.0 mph 2.0 mph 59% 0.00 in
19:59 74.9 °F 60.6 °F 29.93 in NNW 1.0 mph 2.0 mph 61% 0.00 in
20:04 74.3 °F 60.0 °F 29.93 in NNW 2.0 mph 2.0 mph 61% 0.00 in
20:09 73.9 °F 59.6 °F 29.93 in NNE 2.0 mph 3.0 mph 61% 0.00 in
20:14 73.3 °F 59.5 °F 29.93 in NNW 1.0 mph 2.0 mph 62% 0.00 in
20:19 72.7 °F 59.4 °F 29.93 in NNW 1.0 mph 1.0 mph 63% 0.00 in
20:24 72.3 °F 59.5 °F 29.93 in NNW 1.0 mph 1.0 mph 64% 0.00 in
20:29 71.9 °F 59.5 °F 29.93 in Calm   1.0 mph 65% 0.00 in
20:34 71.3 °F 58.9 °F 29.93 in NNW 1.0 mph 1.0 mph 65% 0.00 in
20:39 70.9 °F 59.4 °F 29.93 in Calm   1.0 mph 67% 0.00 in
20:44 70.4 °F 59.3 °F 29.93 in NNW 1.0 mph 1.0 mph 68% 0.00 in
20:49 70.0 °F 59.0 °F 29.94 in NNW 1.0 mph 1.0 mph 68% 0.00 in
20:54 69.7 °F 59.1 °F 29.94 in NNW 1.0 mph 1.0 mph 69% 0.00 in
20:59 69.3 °F 59.1 °F 29.94 in Calm     70% 0.00 in
21:04 68.8 °F 58.6 °F 29.94 in Calm     70% 0.00 in
21:09 68.4 °F 58.6 °F 29.94 in Calm     71% 0.00 in
21:14 68.1 °F 58.7 °F 29.94 in Calm     72% 0.00 in
21:19 68.0 °F 59.0 °F 29.94 in Calm     73% 0.00 in
21:24 67.8 °F 58.8 °F 29.94 in Calm   1.0 mph 73% 0.00 in
21:29 67.3 °F 59.1 °F 29.94 in Calm     75% 0.00 in
21:34 66.7 °F 59.3 °F 29.94 in Calm   1.0 mph 77% 0.00 in
21:39 66.6 °F 59.2 °F 29.94 in NNW 1.0 mph 1.0 mph 77% 0.00 in
21:44 66.3 °F 59.2 °F 29.94 in NNW 1.0 mph 1.0 mph 78% 0.00 in
21:49 66.2 °F 59.5 °F 29.94 in NNW 1.0 mph 2.0 mph 79% 0.00 in
21:55 66.2 °F 59.5 °F 29.94 in NNW 1.0 mph 2.0 mph 79% 0.00 in
22:00 66.2 °F 59.5 °F 29.95 in NNW 1.0 mph 2.0 mph 79% 0.00 in
22:05 66.1 °F 59.0 °F 29.95 in NNW 1.0 mph 1.0 mph 78% 0.00 in
22:10 65.9 °F 58.9 °F 29.95 in Calm     78% 0.00 in
22:15 65.8 °F 59.1 °F 29.95 in Calm   1.0 mph 79% 0.00 in
22:20 65.9 °F 58.9 °F 29.96 in Calm   1.0 mph 78% 0.00 in
22:25 65.6 °F 58.9 °F 29.96 in Calm     79% 0.00 in
22:30 65.1 °F 58.4 °F 29.96 in Calm     79% 0.00 in
22:35 64.9 °F 58.9 °F 29.96 in NNW 1.0 mph 1.0 mph 81% 0.00 in
22:40 65.1 °F 58.8 °F 29.97 in NNW 1.0 mph 1.0 mph 80% 0.00 in
22:45 64.9 °F 58.9 °F 29.97 in Calm   1.0 mph 81% 0.00 in
22:50 64.7 °F 58.7 °F 29.97 in NNW 1.0 mph 1.0 mph 81% 0.00 in
22:55 64.7 °F 59.1 °F 29.97 in Calm   1.0 mph 82% 0.00 in
23:00 64.7 °F 59.1 °F 29.97 in Calm     82% 0.00 in
23:05 64.6 °F 59.0 °F 29.97 in Calm     82% 0.00 in
23:10 64.4 °F 58.8 °F 29.97 in Calm     82% 0.00 in
23:15 64.3 °F 58.7 °F 29.98 in Calm     82% 0.00 in
23:20 64.3 °F 58.7 °F 29.98 in Calm     82% 0.00 in
23:25 64.0 °F 58.4 °F 29.98 in Calm     82% 0.00 in
23:30 63.5 °F 58.2 °F 29.97 in Calm     83% 0.00 in
23:35 62.9 °F 58.0 °F 29.97 in Calm     84% 0.00 in
23:40 62.2 °F 57.3 °F 29.97 in Calm     84% 0.00 in
23:45 61.7 °F 57.5 °F 29.97 in Calm     86% 0.00 in
23:50 61.1 °F 57.5 °F 29.97 in Calm     88% 0.00 in
23:55 60.7 °F 57.4 °F 29.97 in Calm     89% 0.00 in
Compliments of Weather Underground